This is the latest recevied weather packets stored in our database for station/object F5PHW-13. If no packets are shown the sender has not sent any weather packets the latest 10 day(s).
| Time | Temp. | Humidity | Pressure | Rain* | Wind** | Luminosity | Snow |
|---|---|---|---|---|---|---|---|
| 1777633879 | 17.78° C | 64% | 1019.3 hPa | 0 mm | - | - | - |
| 1777632682 | 18.89° C | 61% | 1019.3 hPa | 0 mm | - | - | - |
| 1777631489 | 18.33° C | 63% | 1019.3 hPa | 0 mm | - | - | - |
| 1777630282 | 17.78° C | 65% | 1019.3 hPa | 0 mm | - | - | - |
| 1777629083 | 17.22° C | 66% | 1019.4 hPa | 0 mm | - | - | - |
| 1777627880 | 17.22° C | 69% | 1019.5 hPa | 0 mm | - | - | - |
| 1777626683 | 17.22° C | 69% | 1019.4 hPa | 0 mm | - | - | - |
| 1777625481 | 16.11° C | 72% | 1019.6 hPa | 0 mm | - | - | - |
| 1777624280 | 15° C | 75% | 1019.4 hPa | 0 mm | - | - | - |
| 1777623078 | 15° C | 77% | 1019.4 hPa | 0 mm | - | - | - |
| 1777621878 | 14.44° C | 82% | 1019.3 hPa | 0 mm | - | - | - |
| 1777620678 | 13.33° C | 84% | 1019.1 hPa | 0 mm | - | - | - |
| 1777619477 | 13.33° C | 87% | 1019 hPa | 0 mm | - | - | - |
| 1777618277 | 13.33° C | 87% | 1018.9 hPa | 0 mm | - | - | - |
| 1777617077 | 13.33° C | 88% | 1018.9 hPa | 0 mm | - | - | - |
| 1777615877 | 12.78° C | 88% | 1018.9 hPa | 0 mm | - | - | - |
| 1777614677 | 12.78° C | 87% | 1018.7 hPa | 0 mm | - | - | - |
| 1777613477 | 12.78° C | 87% | 1018.7 hPa | 0 mm | - | - | - |
| 1777612277 | 12.78° C | 87% | 1018.5 hPa | 0 mm | - | - | - |
| 1777611077 | 12.78° C | 87% | 1018.4 hPa | 0 mm | - | - | - |
| 1777609877 | 12.78° C | 87% | 1018.3 hPa | 0 mm | - | - | - |
| 1777608677 | 12.22° C | 87% | 1018.2 hPa | 0 mm | - | - | - |
| 1777607477 | 12.22° C | 87% | 1018 hPa | 0 mm | - | - | - |
| 1777606277 | 12.22° C | 87% | 1017.9 hPa | 0 mm | - | - | - |
| 1777605077 | 12.22° C | 86% | 1017.9 hPa | 0 mm | - | - | - |
* Rain latest hour (hover to see other rain measurements)
** Current wind speed in m/s (hover to see current wind gust speed)